Time;durP1;ratioP1;P1;durP2;ratioP2;P2;SDS_P1;SDS_P2;PMS_P1;PMS_P2;Temp;Humidity;BMP_temperature;BMP_pressure;BME280_temperature;BME280_humidity;BME280_pressure;Samples;Min_cycle;Max_cycle;Signal;HPM_P1;HPM_P2
2021/01/10 00:00:45;;;;;;;20.63;17.30;;;;;;;4.12;60.77;102319.91;6149621;28;20330;-63
2021/01/10 00:04:06;;;;;;;23.00;18.30;;;;;;;4.26;60.72;102311.88;6149327;28;20234;-63
2021/01/10 00:07:26;;;;;;;23.10;18.77;;;;;;;4.17;60.97;102320.13;6155831;28;20238;-64
2021/01/10 00:10:47;;;;;;;20.87;17.67;;;;;;;4.07;61.32;102307.66;6135806;28;20230;-63
2021/01/10 00:14:07;;;;;;;20.07;15.97;;;;;;;4.31;60.73;102308.66;6151440;28;20505;-63
2021/01/10 00:17:29;;;;;;;24.53;18.17;;;;;;;4.24;60.77;102308.34;6155218;28;20310;-64
2021/01/10 00:20:49;;;;;;;23.83;17.63;;;;;;;4.13;60.48;102303.63;6149328;28;20234;-64
2021/01/10 00:24:10;;;;;;;23.50;18.03;;;;;;;3.96;61.72;102304.63;6156552;28;20234;-63
2021/01/10 00:27:31;;;;;;;25.73;20.13;;;;;;;3.61;62.23;102310.88;6157132;28;20234;-64
2021/01/10 00:30:51;;;;;;;26.63;20.53;;;;;;;3.35;63.24;102308.94;6152039;28;20628;-64
2021/01/10 00:34:12;;;;;;;32.23;21.87;;;;;;;2.85;65.82;102304.94;6160405;28;20247;-64
2021/01/10 00:37:33;;;;;;;29.03;19.83;;;;;;;3.54;64.09;102320.88;6159365;28;20253;-63
2021/01/10 00:40:53;;;;;;;26.97;20.87;;;;;;;3.17;64.02;102313.22;6163865;28;20613;-63
2021/01/10 00:44:14;;;;;;;25.47;21.43;;;;;;;3.12;63.72;102319.84;6159125;28;20241;-64
2021/01/10 00:47:35;;;;;;;24.90;19.77;;;;;;;3.29;63.39;102330.94;6159970;28;20234;-63
2021/01/10 00:50:56;;;;;;;28.77;20.73;;;;;;;3.37;63.92;102327.00;6150808;28;20640;-63
2021/01/10 00:54:17;;;;;;;29.90;20.87;;;;;;;2.79;64.75;102337.19;6165602;28;20356;-64
2021/01/10 00:57:38;;;;;;;28.20;20.50;;;;;;;3.03;63.65;102332.34;6151993;28;20829;-64
2021/01/10 01:01:00;;;;;;;26.87;20.47;;;;;;;3.12;64.57;102327.56;6148986;28;20879;-63
2021/01/10 01:04:20;;;;;;;27.70;21.20;;;;;;;3.15;63.79;102323.47;6158856;28;21365;-63
2021/01/10 01:07:42;;;;;;;28.43;19.90;;;;;;;3.45;63.64;102340.22;6152981;28;20238;-63
2021/01/10 01:11:04;;;;;;;20.50;16.37;;;;;;;3.47;62.63;102338.59;6155307;28;20230;-63
2021/01/10 01:14:24;;;;;;;21.90;15.60;;;;;;;3.43;62.20;102355.63;6163189;28;20242;-63
2021/01/10 01:17:44;;;;;;;21.37;17.20;;;;;;;2.23;65.60;102356.78;6145936;28;20760;-63
2021/01/10 01:21:05;;;;;;;19.57;16.53;;;;;;;2.59;64.14;102364.56;6146984;28;20234;-63
2021/01/10 01:24:27;;;;;;;24.07;19.17;;;;;;;2.52;64.96;102366.84;6139208;28;20234;-64
2021/01/10 01:27:47;;;;;;;23.27;19.43;;;;;;;2.43;65.16;102365.50;6145990;28;20238;-63
2021/01/10 01:31:07;;;;;;;24.93;19.40;;;;;;;3.06;63.81;102358.19;6141541;28;20321;-63
2021/01/10 01:34:28;;;;;;;23.00;18.43;;;;;;;3.39;63.24;102363.13;6140016;28;20570;-63
2021/01/10 01:37:48;;;;;;;21.33;18.00;;;;;;;3.56;62.34;102359.59;6142910;28;20223;-64
2021/01/10 01:41:10;;;;;;;19.40;17.00;;;;;;;3.25;62.03;102352.19;6144137;28;20231;-63
2021/01/10 01:44:31;;;;;;;19.77;17.27;;;;;;;2.82;62.98;102345.06;6162613;28;20235;-63
2021/01/10 01:47:51;;;;;;;19.97;17.13;;;;;;;2.59;64.29;102347.44;6162150;28;20242;-63
2021/01/10 01:51:12;;;;;;;21.63;19.20;;;;;;;2.83;63.92;102337.44;6161350;28;20226;-64
2021/01/10 01:54:32;;;;;;;20.87;16.80;;;;;;;2.93;63.54;102344.78;6158803;28;20468;-63
2021/01/10 01:57:53;;;;;;;20.30;17.40;;;;;;;2.44;64.22;102347.56;6156739;28;20234;-63
2021/01/10 02:01:14;;;;;;;20.10;17.40;;;;;;;2.38;64.28;102352.41;6162293;28;20239;-63
2021/01/10 02:04:40;;;;;;;21.93;18.93;;;;;;;2.53;64.48;102342.00;6162673;28;20279;-63
2021/01/10 02:08:05;;;;;;;24.20;21.27;;;;;;;2.85;63.37;102332.34;6163126;28;20234;-63
2021/01/10 02:11:29;;;;;;;23.73;20.37;;;;;;;3.00;63.03;102345.91;6156777;28;20607;-62
2021/01/10 02:14:56;;;;;;;24.43;19.97;;;;;;;3.14;62.32;102339.72;6163636;28;20254;-62
2021/01/10 02:18:18;;;;;;;20.07;17.93;;;;;;;3.28;61.96;102342.94;6158002;28;20313;-63
2021/01/10 02:21:43;;;;;;;23.03;20.20;;;;;;;3.43;61.79;102337.59;6158154;28;20230;-63
2021/01/10 02:25:05;;;;;;;23.97;19.67;;;;;;;3.17;62.32;102336.41;6150023;28;20234;-63
2021/01/10 02:28:28;;;;;;;22.53;19.23;;;;;;;3.14;62.57;102333.69;6151422;28;20239;-62
2021/01/10 02:31:53;;;;;;;23.93;20.13;;;;;;;3.09;63.07;102330.91;6145465;28;20253;-63
2021/01/10 02:35:15;;;;;;;23.53;19.43;;;;;;;2.82;63.58;102332.22;6156213;28;20231;-63
2021/01/10 02:38:44;;;;;;;24.83;19.10;;;;;;;2.80;63.57;102320.97;6152939;28;20230;-63
2021/01/10 02:42:13;;;;;;;20.80;18.20;;;;;;;3.10;62.97;102322.38;6154298;28;20258;-64
2021/01/10 02:45:35;;;;;;;26.60;19.70;;;;;;;2.23;64.85;102318.22;6152234;28;20226;-63
2021/01/10 02:48:55;;;;;;;22.33;19.37;;;;;;;2.50;64.29;102318.69;6160188;28;20234;-63
2021/01/10 02:52:16;;;;;;;24.33;17.93;;;;;;;2.35;65.22;102311.13;6160310;28;20710;-63
2021/01/10 02:55:37;;;;;;;22.53;18.53;;;;;;;2.61;64.85;102314.06;6149809;28;20230;-63
2021/01/10 02:58:59;;;;;;;24.67;18.77;;;;;;;2.27;65.43;102307.28;6165101;28;20234;-63
2021/01/10 03:02:21;;;;;;;22.37;18.53;;;;;;;2.39;65.18;102300.19;6150483;28;20247;-63
2021/01/10 03:05:42;;;;;;;23.20;20.43;;;;;;;2.66;64.15;102298.03;6146427;28;20325;-62
2021/01/10 03:09:04;;;;;;;23.23;19.30;;;;;;;2.83;64.13;102291.13;6158483;28;20234;-63
2021/01/10 03:12:25;;;;;;;27.63;18.37;;;;;;;2.74;63.73;102290.69;6155692;28;20235;-63
2021/01/10 03:15:47;;;;;;;20.70;18.47;;;;;;;3.01;63.30;102283.34;6154586;28;20227;-62
2021/01/10 03:19:07;;;;;;;23.07;17.77;;;;;;;3.26;61.85;102287.91;6154399;28;20242;-64
2021/01/10 03:22:28;;;;;;;23.53;19.63;;;;;;;3.10;62.45;102277.72;6156229;28;20230;-63
2021/01/10 03:25:48;;;;;;;24.73;20.93;;;;;;;2.95;62.88;102277.94;6159833;28;20227;-64
2021/01/10 03:29:09;;;;;;;24.93;21.00;;;;;;;3.17;62.61;102274.63;6149730;28;20238;-63
2021/01/10 03:32:31;;;;;;;27.13;21.53;;;;;;;3.18;62.73;102276.41;6155031;28;20234;-63
2021/01/10 03:35:51;;;;;;;25.00;21.20;;;;;;;3.44;62.11;102276.66;6160791;28;20231;-64
2021/01/10 03:39:12;;;;;;;23.87;19.77;;;;;;;3.24;62.19;102274.09;6144407;28;20238;-63
2021/01/10 03:42:32;;;;;;;24.17;20.47;;;;;;;3.12;63.28;102268.38;6161692;28;20231;-63
2021/01/10 03:45:53;;;;;;;23.63;17.90;;;;;;;2.95;64.03;102265.06;6152158;28;20533;-63
2021/01/10 03:49:14;;;;;;;19.93;17.80;;;;;;;2.97;63.20;102263.44;6161103;28;20235;-63
2021/01/10 03:52:35;;;;;;;19.90;16.97;;;;;;;2.73;64.20;102260.59;6160855;28;20227;-63
2021/01/10 03:55:56;;;;;;;19.23;16.67;;;;;;;2.88;63.66;102260.44;6151529;28;20240;-63
2021/01/10 03:59:16;;;;;;;20.57;16.63;;;;;;;3.07;62.22;102260.44;6157626;28;20222;-62
2021/01/10 04:02:37;;;;;;;21.93;17.77;;;;;;;3.22;61.74;102260.25;6157308;28;20222;-63
2021/01/10 04:05:58;;;;;;;23.30;18.20;;;;;;;2.96;63.10;102264.22;6153927;28;20239;-64
2021/01/10 04:09:18;;;;;;;21.13;18.60;;;;;;;3.17;62.34;102261.75;6158119;28;20331;-64
2021/01/10 04:12:39;;;;;;;21.47;16.97;;;;;;;3.44;62.09;102266.34;6155105;28;20223;-64
2021/01/10 04:15:59;;;;;;;23.03;17.60;;;;;;;3.34;61.92;102262.50;6158127;28;20234;-64
2021/01/10 04:19:21;;;;;;;21.47;16.97;;;;;;;3.44;61.62;102268.94;6163998;28;20230;-63
2021/01/10 04:22:42;;;;;;;25.87;18.93;;;;;;;3.51;61.34;102258.09;6147906;28;20235;-63
2021/01/10 04:26:03;;;;;;;21.20;18.23;;;;;;;3.34;62.37;102263.38;6151185;28;20225;-63
2021/01/10 04:29:24;;;;;;;24.50;17.90;;;;;;;3.26;62.07;102272.47;6166485;28;20522;-64
2021/01/10 04:32:44;;;;;;;23.73;18.97;;;;;;;3.33;62.34;102279.66;6147473;28;20262;-64
2021/01/10 04:36:05;;;;;;;25.70;19.67;;;;;;;2.99;62.88;102272.09;6162081;28;20226;-64
2021/01/10 04:39:27;;;;;;;28.33;22.87;;;;;;;2.95;62.92;102271.09;6159603;28;20234;-63
2021/01/10 04:42:49;;;;;;;28.50;21.57;;;;;;;2.71;63.65;102280.25;6161712;28;20230;-63
2021/01/10 04:46:10;;;;;;;27.20;21.43;;;;;;;3.12;63.15;102268.38;6161643;28;20241;-63
2021/01/10 04:49:31;;;;;;;29.13;23.90;;;;;;;2.78;63.81;102258.28;6155847;28;20238;-63
2021/01/10 04:52:54;;;;;;;27.67;21.63;;;;;;;2.71;64.15;102263.09;6150826;28;20238;-63
2021/01/10 04:56:17;;;;;;;31.03;23.93;;;;;;;2.49;65.09;102266.38;6162002;28;20313;-64
2021/01/10 04:59:39;;;;;;;32.40;25.27;;;;;;;2.25;65.98;102267.78;6166783;28;20227;-63
2021/01/10 05:03:11;;;;;;;31.27;24.80;;;;;;;2.14;66.83;102269.84;6156750;28;20234;-63
2021/01/10 05:06:35;;;;;;;31.67;25.27;;;;;;;1.75;67.93;102259.38;6156849;28;20321;-63
2021/01/10 05:09:55;;;;;;;31.83;24.50;;;;;;;1.35;69.33;102263.34;6153334;28;20238;-63
2021/01/10 05:13:17;;;;;;;31.87;25.83;;;;;;;1.53;69.00;102259.94;6157099;28;20623;-63
2021/01/10 05:16:38;;;;;;;27.97;22.13;;;;;;;1.76;67.98;102259.44;6158000;28;20654;-62
2021/01/10 05:19:59;;;;;;;33.87;24.90;;;;;;;2.24;66.13;102260.88;6164628;28;20230;-63
2021/01/10 05:23:24;;;;;;;32.33;26.70;;;;;;;2.32;66.30;102249.28;6164389;28;20234;-64
2021/01/10 05:26:45;;;;;;;36.80;23.80;;;;;;;2.07;66.86;102242.94;6162492;28;20234;-64
2021/01/10 05:30:08;;;;;;;27.00;21.27;;;;;;;2.30;66.64;102244.06;6161269;28;20312;-64
2021/01/10 05:33:29;;;;;;;29.87;23.70;;;;;;;2.37;65.79;102242.66;6162102;28;20631;-63
2021/01/10 05:36:49;;;;;;;28.83;22.37;;;;;;;2.70;65.12;102232.19;6164145;28;20601;-63
2021/01/10 05:40:19;;;;;;;27.33;21.20;;;;;;;2.87;64.47;102231.25;6154408;28;20235;-64
2021/01/10 05:43:56;;;;;;;30.70;22.93;;;;;;;2.85;64.39;102231.97;6164315;28;20245;-63
2021/01/10 05:47:19;;;;;;;29.77;22.90;;;;;;;2.88;64.44;102227.84;6165091;28;20532;-63
2021/01/10 05:50:49;;;;;;;31.77;24.40;;;;;;;3.22;63.82;102229.38;6139309;28;20293;-63
2021/01/10 05:54:09;;;;;;;28.03;22.20;;;;;;;3.47;62.50;102227.81;6159329;28;20627;-63
2021/01/10 05:57:30;;;;;;;33.43;25.80;;;;;;;3.24;63.48;102232.88;6159564;28;20507;-63
2021/01/10 06:00:52;;;;;;;27.70;21.47;;;;;;;3.42;62.67;102232.78;6160644;28;20226;-63
2021/01/10 06:04:22;;;;;;;32.60;22.80;;;;;;;2.91;63.87;102230.59;6151774;28;20235;-63
2021/01/10 06:07:43;;;;;;;33.10;24.67;;;;;;;3.08;64.07;102230.44;6163677;28;20628;-63
2021/01/10 06:11:20;;;;;;;27.80;20.37;;;;;;;3.14;63.70;102235.84;6165126;28;20301;-64
2021/01/10 06:14:41;;;;;;;28.70;20.67;;;;;;;3.27;63.00;102222.69;6149216;28;20325;-63
2021/01/10 06:18:03;;;;;;;30.90;22.53;;;;;;;3.35;63.00;102217.88;6147099;28;20235;-63
2021/01/10 06:21:26;;;;;;;29.57;20.80;;;;;;;3.35;63.13;102216.22;6157064;28;20235;-64
2021/01/10 06:24:47;;;;;;;29.43;23.87;;;;;;;3.16;63.74;102223.97;6161645;28;20231;-64
2021/01/10 06:28:09;;;;;;;28.30;21.10;;;;;;;3.32;62.84;102216.06;6155250;28;20231;-61
2021/01/10 06:31:31;;;;;;;31.50;22.50;;;;;;;3.51;62.41;102224.59;6154077;28;20227;-63
2021/01/10 06:34:52;;;;;;;29.23;22.13;;;;;;;3.48;62.69;102222.75;6161064;28;20235;-63
2021/01/10 06:38:13;;;;;;;28.33;21.20;;;;;;;3.14;63.85;102215.25;6158523;28;20226;-63
2021/01/10 06:42:04;;;;;;;27.20;21.83;;;;;;;2.84;64.95;102228.53;6147292;28;20534;-63
2021/01/10 06:45:32;;;;;;;32.00;22.57;;;;;;;2.75;64.91;102225.53;6164309;28;20239;-63
2021/01/10 06:48:53;;;;;;;27.67;20.80;;;;;;;3.15;63.96;102224.75;6157200;28;20340;-64
2021/01/10 06:52:14;;;;;;;28.37;21.37;;;;;;;3.32;62.77;102228.94;6162297;28;20547;-64
2021/01/10 06:55:37;;;;;;;26.17;20.67;;;;;;;3.03;64.17;102231.94;6158945;28;20597;-64
2021/01/10 06:59:02;;;;;;;28.83;21.37;;;;;;;3.32;63.19;102228.94;6165971;28;20234;-63
2021/01/10 07:02:23;;;;;;;28.17;20.20;;;;;;;3.25;63.50;102219.19;6151399;28;20250;-64
2021/01/10 07:06:10;;;;;;;28.83;21.20;;;;;;;3.22;63.48;102213.91;6151578;28;20558;-64
2021/01/10 07:09:53;;;;;;;26.57;19.50;;;;;;;3.05;64.42;102215.75;6157084;28;20234;-64
2021/01/10 07:13:24;;;;;;;28.37;20.50;;;;;;;3.40;63.70;102212.94;6155277;28;20223;-63
2021/01/10 07:16:46;;;;;;;24.83;19.40;;;;;;;3.26;63.18;102220.97;6153781;28;21030;-63
2021/01/10 07:20:08;;;;;;;28.20;18.63;;;;;;;2.96;64.50;102215.34;6163036;28;20239;-63
2021/01/10 07:23:30;;;;;;;25.33;19.30;;;;;;;3.10;64.25;102213.38;6159779;28;20234;-63
2021/01/10 07:26:54;;;;;;;27.50;19.37;;;;;;;3.10;64.21;102210.78;6154578;28;20235;-63
2021/01/10 07:30:23;;;;;;;23.87;17.37;;;;;;;3.45;63.50;102219.16;6152167;28;20601;-63
2021/01/10 07:33:45;;;;;;;26.90;20.77;;;;;;;3.06;64.91;102217.50;6166745;28;20549;-63
2021/01/10 07:37:06;;;;;;;25.17;19.07;;;;;;;3.20;64.02;102212.97;6160425;28;20231;-64
2021/01/10 07:40:29;;;;;;;26.20;19.50;;;;;;;3.27;64.10;102217.56;6155885;28;20246;-63
2021/01/10 07:43:51;;;;;;;26.90;17.77;;;;;;;3.51;63.75;102206.56;6157959;28;20230;-63
2021/01/10 07:47:13;;;;;;;29.03;19.57;;;;;;;3.63;62.95;102214.78;6159916;28;20258;-63
2021/01/10 07:50:34;;;;;;;25.27;18.23;;;;;;;3.87;62.07;102202.03;6164344;28;20234;-64
2021/01/10 07:53:56;;;;;;;29.53;19.20;;;;;;;3.55;63.59;102213.59;6162147;28;20266;-64
2021/01/10 07:57:37;;;;;;;24.90;19.17;;;;;;;3.82;62.81;102212.97;6159784;28;20238;-63
2021/01/10 08:00:58;;;;;;;26.57;19.17;;;;;;;3.82;62.28;102212.97;6147534;28;20234;-64
2021/01/10 08:04:32;;;;;;;23.10;17.47;;;;;;;3.90;62.55;102212.47;6151827;28;20281;-63
2021/01/10 08:07:55;;;;;;;21.50;16.67;;;;;;;3.62;63.04;102222.44;6156544;28;20226;-63
2021/01/10 08:11:30;;;;;;;26.93;17.53;;;;;;;3.78;62.92;102221.38;6150174;28;20238;-63
2021/01/10 08:15:02;;;;;;;28.17;19.30;;;;;;;3.65;62.69;102214.88;6157907;28;20234;-63
2021/01/10 08:18:27;;;;;;;24.13;19.70;;;;;;;3.61;63.40;102228.44;6159468;28;20281;-64
2021/01/10 08:21:49;;;;;;;24.37;18.37;;;;;;;3.60;63.24;102219.81;6151594;28;20234;-63
2021/01/10 08:25:21;;;;;;;23.83;18.83;;;;;;;3.41;64.18;102219.84;6153668;28;20234;-64
2021/01/10 08:28:43;;;;;;;25.80;17.93;;;;;;;3.33;63.70;102215.28;6161457;28;20639;-63
2021/01/10 08:32:04;;;;;;;26.03;17.70;;;;;;;3.67;63.52;102208.06;6151895;28;20247;-63
2021/01/10 08:35:25;;;;;;;22.20;15.83;;;;;;;3.70;63.02;102218.50;6165179;28;20254;-63
2021/01/10 08:38:48;;;;;;;20.73;16.70;;;;;;;3.88;62.37;102213.25;6156638;28;20313;-62
2021/01/10 08:42:08;;;;;;;21.60;16.43;;;;;;;3.92;62.87;102220.28;6151623;28;20269;-62
2021/01/10 08:45:29;;;;;;;25.20;17.40;;;;;;;5.07;61.00;102223.78;6163489;28;20226;-63
2021/01/10 08:48:50;;;;;;;21.40;16.27;;;;;;;6.20;56.39;102226.75;6155279;28;20226;-63
2021/01/10 08:52:11;;;;;;;18.90;16.27;;;;;;;6.43;55.44;102217.13;6152139;28;20242;-64
2021/01/10 08:55:37;;;;;;;20.93;16.53;;;;;;;7.04;53.21;102214.56;6151670;28;20246;-64
2021/01/10 08:58:58;;;;;;;20.63;15.03;;;;;;;7.75;50.70;102203.44;6152165;28;20234;-63
2021/01/10 09:02:18;;;;;;;20.27;14.77;;;;;;;6.46;54.81;102206.88;6149127;28;20242;-63
2021/01/10 09:05:39;;;;;;;21.77;17.03;;;;;;;5.91;56.00;102202.50;6127753;28;20242;-63
2021/01/10 09:09:03;;;;;;;16.70;13.80;;;;;;;5.75;57.26;102208.91;6158073;28;20619;-64
2021/01/10 09:12:31;;;;;;;18.03;13.80;;;;;;;6.59;55.37;102204.63;6159264;28;20608;-63
2021/01/10 09:15:54;;;;;;;17.43;14.43;;;;;;;9.63;47.68;102188.34;6153315;28;20230;-64
2021/01/10 09:19:16;;;;;;;16.27;13.40;;;;;;;11.03;43.82;102197.22;6155335;28;20519;-64
2021/01/10 09:22:36;;;;;;;17.57;14.50;;;;;;;10.37;45.55;102199.91;6154992;28;20254;-64
2021/01/10 09:25:57;;;;;;;17.00;14.20;;;;;;;10.91;43.75;102199.69;6156289;28;20234;-62
2021/01/10 09:29:19;;;;;;;15.73;12.87;;;;;;;10.50;43.93;102198.31;6154292;28;20234;-64
2021/01/10 09:32:40;;;;;;;17.63;15.73;;;;;;;11.34;43.05;102197.53;6151889;28;20235;-64
2021/01/10 09:36:01;;;;;;;18.27;14.73;;;;;;;10.83;43.45;102195.25;6155544;28;20763;-63
2021/01/10 09:39:36;;;;;;;16.97;13.77;;;;;;;11.05;42.70;102200.75;6153448;28;20227;-64
2021/01/10 09:42:57;;;;;;;17.53;15.67;;;;;;;9.29;45.54;102206.81;6157204;28;20234;-63
2021/01/10 09:46:25;;;;;;;14.13;12.40;;;;;;;9.89;46.50;102205.19;6153709;28;20243;-62
2021/01/10 09:49:46;;;;;;;15.30;13.50;;;;;;;9.40;46.70;102211.34;6144099;28;20234;-64
2021/01/10 09:53:07;;;;;;;15.70;13.87;;;;;;;8.45;48.99;102212.94;6157592;28;20234;-63
2021/01/10 09:56:46;;;;;;;21.47;15.73;;;;;;;7.88;50.61;102213.28;6157534;28;20254;-63
2021/01/10 10:00:13;;;;;;;16.07;14.30;;;;;;;7.62;52.14;102218.72;6147304;28;20289;-64
2021/01/10 10:03:35;;;;;;;16.80;14.43;;;;;;;6.84;56.12;102217.47;6147117;28;20231;-60
2021/01/10 10:06:56;;;;;;;17.10;14.03;;;;;;;6.02;56.52;102211.53;6146817;28;20254;-62
2021/01/10 10:10:22;;;;;;;115.33;62.33;;;;;;;6.36;57.48;102219.47;6146508;28;20530;-61
2021/01/10 10:13:42;;;;;;;52.30;47.20;;;;;;;5.37;58.65;102218.84;6149974;28;20254;-63
2021/01/10 10:17:03;;;;;;;140.63;126.73;;;;;;;5.43;58.87;102205.22;6165172;28;20250;-70
2021/01/10 10:20:24;;;;;;;190.47;174.10;;;;;;;4.89;61.42;102211.97;6165546;28;20302;-62
2021/01/10 10:23:44;;;;;;;287.00;260.43;;;;;;;5.08;60.03;102198.03;6163726;28;20230;-65
2021/01/10 10:27:05;;;;;;;71.83;64.93;;;;;;;5.60;60.83;102186.00;6165222;28;20231;-70
2021/01/10 10:30:26;;;;;;;18.23;14.23;;;;;;;5.35;58.63;102193.75;6156437;28;20231;-61
2021/01/10 10:33:48;;;;;;;19.33;14.20;;;;;;;4.67;61.04;102193.91;6156136;28;20238;-61
2021/01/10 10:37:10;;;;;;;17.63;13.53;;;;;;;4.81;60.26;102195.34;6161064;28;20612;-61
2021/01/10 10:40:30;;;;;;;18.37;13.73;;;;;;;4.58;61.35;102183.28;6162123;28;20616;-62
2021/01/10 10:43:51;;;;;;;19.27;14.57;;;;;;;4.52;61.71;102183.94;6154503;28;20226;-62
2021/01/10 10:47:13;;;;;;;17.87;13.93;;;;;;;4.42;62.23;102177.53;6162910;28;20246;-61
2021/01/10 10:50:35;;;;;;;19.50;14.30;;;;;;;3.85;65.02;102185.63;6167397;28;20343;-61
2021/01/10 10:53:56;;;;;;;23.73;16.17;;;;;;;4.36;63.13;102163.53;6156952;28;20234;-61
2021/01/10 10:57:17;;;;;;;22.83;15.60;;;;;;;4.41;62.74;102164.59;6157365;28;20243;-61
2021/01/10 11:00:39;;;;;;;21.23;15.27;;;;;;;4.17;63.73;102174.81;6151711;28;20232;-62
2021/01/10 11:03:59;;;;;;;19.77;16.17;;;;;;;4.74;62.98;102159.78;6155992;28;22428;-61
2021/01/10 11:07:20;;;;;;;20.13;15.73;;;;;;;5.13;61.42;102143.94;6156274;28;20318;-61
2021/01/10 11:10:41;;;;;;;25.97;18.80;;;;;;;5.30;61.12;102152.28;6153851;28;20680;-60
2021/01/10 11:14:02;;;;;;;21.97;15.63;;;;;;;5.11;61.49;102150.75;6147847;28;20234;-63
2021/01/10 11:17:22;;;;;;;19.47;15.53;;;;;;;5.39;60.04;102141.34;6150035;28;21786;-61
2021/01/10 11:20:50;;;;;;;20.93;16.63;;;;;;;5.42;60.75;102144.06;6159308;28;20235;-60
2021/01/10 11:24:11;;;;;;;22.20;16.17;;;;;;;4.95;61.99;102148.47;6158074;28;20616;-61
2021/01/10 11:27:33;;;;;;;20.00;16.07;;;;;;;4.93;61.97;102140.69;6157181;28;20219;-61
2021/01/10 11:30:54;;;;;;;24.93;16.77;;;;;;;4.96;62.13;102148.50;6158960;28;20219;-61
2021/01/10 11:34:15;;;;;;;22.23;17.00;;;;;;;4.37;63.70;102148.09;6153446;28;20605;-60
2021/01/10 11:37:36;;;;;;;24.93;15.63;;;;;;;4.57;63.49;102147.97;6156437;28;20238;-61
2021/01/10 11:40:57;;;;;;;24.90;14.87;;;;;;;4.45;63.99;102133.78;6156830;28;20317;-61
2021/01/10 11:44:20;;;;;;;21.40;15.97;;;;;;;4.35;64.65;102139.44;6161181;28;20222;-61
2021/01/10 11:47:40;;;;;;;22.33;16.70;;;;;;;4.52;63.98;102128.03;6156440;28;20230;-61
2021/01/10 11:51:02;;;;;;;22.03;16.20;;;;;;;4.26;65.12;102119.31;6156712;28;20242;-61
2021/01/10 11:54:23;;;;;;;28.83;19.50;;;;;;;3.98;66.00;102127.72;6153915;28;20530;-62
2021/01/10 11:57:43;;;;;;;24.87;16.47;;;;;;;3.91;66.86;102113.69;6151787;28;20238;-62
2021/01/10 12:01:04;;;;;;;23.63;17.37;;;;;;;4.56;65.00;102110.09;6152694;28;20458;-61
2021/01/10 12:04:25;;;;;;;38.30;18.80;;;;;;;4.72;63.53;102118.44;6157517;28;20234;-61
2021/01/10 12:07:45;;;;;;;24.00;19.83;;;;;;;4.79;64.34;102108.31;6150351;28;20238;-61
2021/01/10 12:11:13;;;;;;;24.87;17.70;;;;;;;4.39;65.04;102104.31;6158655;28;20230;-61
2021/01/10 12:14:34;;;;;;;27.00;17.30;;;;;;;4.60;64.34;102106.81;6152943;28;20230;-60
2021/01/10 12:17:55;;;;;;;24.63;18.60;;;;;;;4.96;67.52;102090.84;6159880;28;20604;-64
2021/01/10 12:21:17;;;;;;;24.23;17.23;;;;;;;4.93;65.08;102089.91;6146626;28;20327;-63
2021/01/10 12:24:37;;;;;;;29.53;17.70;;;;;;;4.43;64.90;102091.59;6156614;28;20659;-63
2021/01/10 12:27:59;;;;;;;26.27;19.63;;;;;;;4.60;64.34;102068.97;6157478;28;20242;-63
2021/01/10 12:31:20;;;;;;;25.80;17.47;;;;;;;4.75;64.17;102073.81;6156705;28;20223;-63
2021/01/10 12:34:41;;;;;;;24.07;18.20;;;;;;;4.71;64.64;102065.06;6159433;28;20235;-63
2021/01/10 12:38:02;;;;;;;24.27;19.50;;;;;;;4.08;66.44;102065.38;6161141;28;20243;-64
2021/01/10 12:41:23;;;;;;;23.83;18.90;;;;;;;3.98;66.16;102086.47;6162415;28;20321;-62
2021/01/10 12:44:44;;;;;;;29.60;18.43;;;;;;;3.92;66.92;102060.47;6155274;28;20223;-64
2021/01/10 12:48:05;;;;;;;24.33;18.67;;;;;;;4.32;65.15;102055.09;6157711;28;20238;-65
2021/01/10 12:51:26;;;;;;;23.97;17.93;;;;;;;4.75;66.66;102066.06;6152843;28;20235;-66
2021/01/10 12:54:46;;;;;;;27.27;18.33;;;;;;;5.40;66.39;102051.00;6155527;28;20317;-67
2021/01/10 12:58:07;;;;;;;25.60;18.50;;;;;;;4.73;66.21;102047.06;6154434;28;20317;-67
2021/01/10 13:01:27;;;;;;;28.17;19.87;;;;;;;4.84;65.59;102043.13;6142222;28;20294;-65
2021/01/10 13:04:48;;;;;;;23.87;16.27;;;;;;;4.95;63.85;102046.09;6161562;28;20218;-66
2021/01/10 13:08:09;;;;;;;23.63;18.47;;;;;;;4.80;64.17;102036.09;6153429;28;20234;-65
2021/01/10 13:11:30;;;;;;;23.03;16.80;;;;;;;4.66;64.37;102039.94;6149059;28;20231;-65
2021/01/10 13:14:50;;;;;;;27.47;17.17;;;;;;;4.44;66.06;102030.53;6150469;28;20242;-65
2021/01/10 13:18:11;;;;;;;20.40;16.90;;;;;;;4.24;66.40;102033.28;6155529;28;20235;-65
2021/01/10 13:21:33;;;;;;;24.17;17.90;;;;;;;4.82;64.62;102031.00;6158691;28;20687;-65
2021/01/10 13:24:55;;;;;;;23.30;17.53;;;;;;;4.51;65.62;102033.38;6156138;28;20230;-65
2021/01/10 13:28:16;;;;;;;23.87;16.97;;;;;;;5.09;63.65;102021.59;6151820;28;20338;-65
2021/01/10 13:31:38;;;;;;;22.10;16.77;;;;;;;4.86;64.01;102014.78;6156284;28;20329;-65
2021/01/10 13:34:58;;;;;;;22.60;17.27;;;;;;;4.97;64.23;102017.75;6157996;28;20250;-65
2021/01/10 13:38:19;;;;;;;22.13;15.17;;;;;;;4.83;64.65;102017.28;6159256;28;20234;-65
2021/01/10 13:41:40;;;;;;;21.93;16.27;;;;;;;4.49;65.29;102019.56;6153750;28;20235;-65
2021/01/10 13:45:01;;;;;;;24.77;17.03;;;;;;;4.40;65.80;102014.09;6154987;28;20631;-65
2021/01/10 13:48:21;;;;;;;19.23;15.57;;;;;;;4.29;66.35;102020.56;6161021;28;20230;-65
2021/01/10 13:51:42;;;;;;;25.73;17.93;;;;;;;4.63;65.48;102007.13;6167382;28;20235;-64
2021/01/10 13:55:08;;;;;;;24.17;17.90;;;;;;;4.71;64.92;102016.03;6168373;28;20537;-64
2021/01/10 13:58:30;;;;;;;21.30;15.93;;;;;;;4.87;64.85;102009.69;6146218;28;20235;-64
2021/01/10 14:01:51;;;;;;;18.67;15.23;;;;;;;4.52;65.95;102011.94;6156049;28;20227;-64
2021/01/10 14:05:13;;;;;;;18.20;14.20;;;;;;;4.93;64.80;102003.84;6165178;28;20317;-65
2021/01/10 14:08:35;;;;;;;16.83;13.83;;;;;;;4.42;66.20;102009.88;6155998;28;20227;-66
2021/01/10 14:11:56;;;;;;;23.03;16.30;;;;;;;4.23;66.52;102010.03;6169272;28;20242;-65
2021/01/10 14:15:18;;;;;;;17.03;13.37;;;;;;;4.48;65.74;101999.75;6160450;28;20299;-64
2021/01/10 14:18:38;;;;;;;24.87;15.43;;;;;;;4.12;67.16;101986.44;6162731;28;20234;-64
2021/01/10 14:21:59;;;;;;;19.80;16.23;;;;;;;4.65;65.46;101994.28;6163886;28;20249;-65
2021/01/10 14:25:19;;;;;;;18.97;14.37;;;;;;;4.32;66.80;101993.19;6159067;28;20222;-65
2021/01/10 14:28:40;;;;;;;17.40;13.20;;;;;;;4.92;64.64;101986.59;6167994;28;20727;-65
2021/01/10 14:32:01;;;;;;;18.10;13.50;;;;;;;5.07;64.68;101993.97;6162749;28;20242;-65
2021/01/10 14:35:21;;;;;;;17.93;13.60;;;;;;;4.87;64.95;101986.44;6149701;28;20230;-64
2021/01/10 14:38:42;;;;;;;16.30;12.70;;;;;;;4.72;65.13;101981.66;6154448;28;20243;-65
2021/01/10 14:42:02;;;;;;;18.00;14.07;;;;;;;4.57;65.62;101988.00;6152237;28;20520;-66
2021/01/10 14:45:22;;;;;;;17.70;12.87;;;;;;;4.40;65.96;101979.66;6161217;28;20515;-65
2021/01/10 14:48:44;;;;;;;16.67;14.10;;;;;;;5.06;64.53;101976.72;6158870;28;20246;-65
2021/01/10 14:52:04;;;;;;;17.27;14.07;;;;;;;5.03;63.93;101981.78;6166462;28;20611;-66
2021/01/10 14:55:25;;;;;;;18.37;13.70;;;;;;;4.73;65.49;101974.81;6157982;28;20235;-65
2021/01/10 14:58:46;;;;;;;16.70;13.07;;;;;;;4.67;65.71;101979.75;6152451;28;20856;-65
2021/01/10 15:02:07;;;;;;;18.07;12.50;;;;;;;4.73;65.78;101986.00;6148357;28;20239;-65
2021/01/10 15:05:28;;;;;;;16.93;11.93;;;;;;;4.93;64.83;101980.63;6163231;28;20331;-65
2021/01/10 15:08:49;;;;;;;17.30;11.97;;;;;;;5.10;64.55;101978.59;6167114;28;20310;-64
2021/01/10 15:12:09;;;;;;;16.40;12.87;;;;;;;4.61;65.95;101982.13;6162084;28;20648;-65
2021/01/10 15:15:30;;;;;;;17.83;11.83;;;;;;;4.70;65.48;101980.72;6150381;28;20349;-65
2021/01/10 15:18:53;;;;;;;21.70;13.70;;;;;;;4.70;65.78;101972.13;6162257;28;20238;-64
2021/01/10 15:22:14;;;;;;;17.87;13.00;;;;;;;4.63;65.48;101977.88;6166527;28;20330;-66
2021/01/10 15:25:34;;;;;;;24.30;15.40;;;;;;;4.38;67.07;101974.47;6157716;28;20242;-66
2021/01/10 15:28:55;;;;;;;20.57;13.53;;;;;;;4.67;66.29;101966.84;6163578;28;20671;-66